Time;durP1;ratioP1;P1;durP2;ratioP2;P2;SDS_P1;SDS_P2;PMS_P1;PMS_P2;Temp;Humidity;BMP_temperature;BMP_pressure;BME280_temperature;BME280_humidity;BME280_pressure;Samples;Min_cycle;Max_cycle;Signal;HPM_P1;HPM_P2
2022/04/11 00:00:04;;;;;;;0.10;0.10;;;;;;;;;;5001195;28;20044;-80
2022/04/11 00:02:30;;;;;;;0.98;0.30;;;;;;;;;;4993693;28;20276;-80
2022/04/11 00:04:56;;;;;;;0.00;0.00;;;;;;;;;;5002698;28;20045;-80
2022/04/11 00:07:22;;;;;;;0.00;0.00;;;;;;;;;;5001179;28;20041;-80
2022/04/11 00:09:48;;;;;;;0.20;0.20;;;;;;;;;;5026915;28;20030;-80
2022/04/11 00:12:14;;;;;;;0.10;0.10;;;;;;;;;;4998874;28;20518;-80
2022/04/11 00:14:40;;;;;;;0.10;0.10;;;;;;;;;;4998080;28;20030;-80
2022/04/11 00:17:06;;;;;;;0.00;0.00;;;;;;;;;;4999040;28;20036;-80
2022/04/11 00:19:32;;;;;;;0.10;0.10;;;;;;;;;;5001487;28;20122;-80
2022/04/11 00:21:59;;;;;;;0.10;0.10;;;;;;;;;;5000007;28;20057;-80
2022/04/11 00:24:25;;;;;;;0.10;0.10;;;;;;;;;;4999590;28;20104;-80
2022/04/11 00:26:51;;;;;;;0.45;0.43;;;;;;;;;;4999330;28;20312;-81
2022/04/11 00:29:17;;;;;;;0.00;0.00;;;;;;;;;;4993833;28;20610;-81
2022/04/11 00:31:43;;;;;;;0.10;0.10;;;;;;;;;;5001374;28;20160;-81
2022/04/11 00:34:09;;;;;;;0.10;0.10;;;;;;;;;;4999048;28;20570;-80
2022/04/11 00:36:35;;;;;;;0.10;0.10;;;;;;;;;;5001366;28;20030;-79
2022/04/11 00:39:01;;;;;;;0.10;0.10;;;;;;;;;;5031356;28;20556;-80
2022/04/11 00:41:27;;;;;;;0.00;0.00;;;;;;;;;;5016906;28;20034;-80
2022/04/11 00:43:53;;;;;;;0.10;0.10;;;;;;;;;;5001657;28;20030;-81
2022/04/11 00:46:20;;;;;;;0.10;0.10;;;;;;;;;;5001739;28;20168;-80
2022/04/11 00:48:46;;;;;;;;;;;;;;;;;;5000465;28;20052;-80
2022/04/11 00:51:18;;;;;;;0.10;0.10;;;;;;;;;;5014747;28;20924;-80
2022/04/11 00:53:45;;;;;;;0.32;0.32;;;;;;;;;;5000506;28;20045;-81
2022/04/11 00:56:12;;;;;;;0.10;0.10;;;;;;;;;;5032735;28;20033;-80
2022/04/11 00:58:39;;;;;;;0.10;0.10;;;;;;;;;;5001507;28;20037;-80
2022/04/11 01:01:05;;;;;;;;;;;;;;;;;;4998598;28;20085;-80
2022/04/11 01:03:32;;;;;;;0.03;0.03;;;;;;;;;;5000736;28;19921;-80
2022/04/11 01:05:58;;;;;;;0.52;0.52;;;;;;;;;;5000349;28;20388;-81
2022/04/11 01:08:24;;;;;;;0.20;0.20;;;;;;;;;;5000530;28;20034;-80
2022/04/11 01:10:50;;;;;;;0.37;0.37;;;;;;;;;;4999444;28;20064;-81
2022/04/11 01:13:16;;;;;;;0.00;0.00;;;;;;;;;;4999561;28;20053;-80
2022/04/11 01:15:53;;;;;;;0.00;0.00;;;;;;;;;;5001019;28;20080;-80
2022/04/11 01:18:19;;;;;;;0.00;0.00;;;;;;;;;;4999199;28;20022;-80
2022/04/11 01:20:45;;;;;;;0.00;0.00;;;;;;;;;;5001667;28;20033;-80
2022/04/11 01:23:11;;;;;;;0.10;0.10;;;;;;;;;;5000569;28;20030;-80
2022/04/11 01:25:37;;;;;;;0.10;0.10;;;;;;;;;;5029565;28;20096;-81
2022/04/11 01:28:04;;;;;;;0.00;0.00;;;;;;;;;;5000887;28;20034;-80
2022/04/11 01:30:30;;;;;;;;;;;;;;;;;;5001268;28;20101;-81
2022/04/11 01:32:56;;;;;;;3.63;0.55;;;;;;;;;;5000916;28;20012;-80
2022/04/11 01:35:24;;;;;;;0.03;0.03;;;;;;;;;;4998237;28;20041;-80
2022/04/11 01:37:50;;;;;;;0.20;0.15;;;;;;;;;;5007780;28;20017;-80
2022/04/11 01:40:16;;;;;;;0.10;0.10;;;;;;;;;;5001981;28;20088;-80
2022/04/11 01:42:45;;;;;;;0.00;0.00;;;;;;;;;;4996992;28;20033;-80
2022/04/11 01:45:12;;;;;;;0.30;0.28;;;;;;;;;;4995761;28;20057;-81
2022/04/11 01:47:39;;;;;;;0.00;0.00;;;;;;;;;;5000237;28;20081;-81
2022/04/11 01:50:06;;;;;;;0.00;0.00;;;;;;;;;;4999543;28;20038;-81
2022/04/11 01:52:32;;;;;;;0.00;0.00;;;;;;;;;;4999450;28;20668;-80
2022/04/11 01:54:58;;;;;;;0.00;0.00;;;;;;;;;;4999411;28;20065;-80
2022/04/11 01:57:24;;;;;;;0.00;0.00;;;;;;;;;;4999888;28;20073;-80
2022/04/11 01:59:50;;;;;;;0.10;0.10;;;;;;;;;;4996762;28;20498;-80
2022/04/11 02:02:16;;;;;;;0.20;0.20;;;;;;;;;;4997206;28;20034;-81
2022/04/11 02:04:42;;;;;;;0.00;0.00;;;;;;;;;;5000777;28;20140;-81
2022/04/11 02:07:09;;;;;;;;;;;;;;;;;;4995263;28;20042;-80
2022/04/11 02:09:35;;;;;;;0.10;0.10;;;;;;;;;;4997331;28;19913;-80
2022/04/11 02:12:01;;;;;;;0.10;0.10;;;;;;;;;;5000723;28;20030;-80
2022/04/11 02:14:27;;;;;;;0.10;0.10;;;;;;;;;;5003573;28;20022;-81
2022/04/11 02:16:53;;;;;;;0.20;0.20;;;;;;;;;;5035933;28;20364;-80
2022/04/11 02:19:19;;;;;;;1.17;1.08;;;;;;;;;;5001419;28;20037;-80
2022/04/11 02:21:45;;;;;;;0.10;0.10;;;;;;;;;;5000879;28;20030;-81
2022/04/11 02:24:11;;;;;;;0.00;0.00;;;;;;;;;;5000473;28;20041;-80
2022/04/11 02:26:37;;;;;;;0.10;0.10;;;;;;;;;;5003014;28;20523;-81
2022/04/11 02:29:03;;;;;;;0.00;0.00;;;;;;;;;;5002831;28;20113;-81
2022/04/11 02:31:29;;;;;;;0.00;0.00;;;;;;;;;;5002552;28;20127;-81
2022/04/11 02:33:55;;;;;;;0.10;0.10;;;;;;;;;;5002559;28;20030;-80
2022/04/11 02:36:21;;;;;;;0.38;0.38;;;;;;;;;;5003684;28;20034;-80
2022/04/11 02:38:47;;;;;;;0.03;0.03;;;;;;;;;;5003633;28;20100;-80
2022/04/11 02:41:13;;;;;;;0.10;0.10;;;;;;;;;;5003688;28;20525;-80
2022/04/11 02:43:39;;;;;;;0.00;0.00;;;;;;;;;;5004523;28;20498;-80
2022/04/11 02:46:05;;;;;;;0.10;0.10;;;;;;;;;;5001929;28;20104;-81
2022/04/11 02:48:31;;;;;;;0.00;0.00;;;;;;;;;;5000721;28;20062;-80
2022/04/11 02:50:57;;;;;;;0.00;0.00;;;;;;;;;;5001389;28;20132;-81
2022/04/11 02:53:23;;;;;;;0.10;0.10;;;;;;;;;;5000693;28;20133;-81
2022/04/11 02:55:49;;;;;;;0.05;0.05;;;;;;;;;;5005911;28;20060;-80
2022/04/11 02:58:15;;;;;;;0.10;0.10;;;;;;;;;;5001834;28;20079;-81
2022/04/11 03:00:41;;;;;;;0.20;0.20;;;;;;;;;;5000563;28;20041;-81
2022/04/11 03:03:10;;;;;;;0.10;0.10;;;;;;;;;;4999729;28;20030;-83
2022/04/11 03:05:36;;;;;;;0.10;0.10;;;;;;;;;;5001210;28;20297;-84
2022/04/11 03:08:02;;;;;;;0.00;0.00;;;;;;;;;;5001115;28;20133;-82
2022/04/11 03:10:28;;;;;;;0.00;0.00;;;;;;;;;;5002025;28;20356;-83
2022/04/11 03:12:54;;;;;;;0.20;0.20;;;;;;;;;;5014496;28;20324;-79
2022/04/11 03:15:20;;;;;;;0.03;0.03;;;;;;;;;;5000876;28;20057;-83
2022/04/11 03:17:46;;;;;;;7.38;1.10;;;;;;;;;;5002171;28;20034;-81
2022/04/11 03:20:13;;;;;;;0.00;0.00;;;;;;;;;;5001388;28;20077;-81
2022/04/11 03:22:39;;;;;;;0.30;0.20;;;;;;;;;;5003033;28;20112;-83
2022/04/11 03:25:05;;;;;;;0.10;0.10;;;;;;;;;;5000791;28;20033;-83
2022/04/11 03:27:31;;;;;;;0.10;0.10;;;;;;;;;;5002121;28;20034;-83
2022/04/11 03:29:57;;;;;;;0.20;0.20;;;;;;;;;;5001570;28;20063;-80
2022/04/11 03:32:23;;;;;;;0.08;0.08;;;;;;;;;;5002491;28;20049;-80
2022/04/11 03:34:51;;;;;;;0.00;0.00;;;;;;;;;;5003562;28;20036;-79
2022/04/11 03:37:17;;;;;;;0.30;0.30;;;;;;;;;;5001775;28;20284;-80
2022/04/11 03:39:43;;;;;;;10.57;1.30;;;;;;;;;;5002132;28;20030;-81
2022/04/11 03:42:09;;;;;;;0.10;0.10;;;;;;;;;;5001765;28;20766;-80
2022/04/11 03:44:35;;;;;;;0.10;0.10;;;;;;;;;;5001060;28;20053;-79
2022/04/11 03:47:02;;;;;;;0.10;0.10;;;;;;;;;;4998936;28;20041;-79
2022/04/11 03:49:28;;;;;;;0.10;0.10;;;;;;;;;;4998714;28;20026;-80
2022/04/11 03:51:54;;;;;;;0.00;0.00;;;;;;;;;;4997810;28;20779;-81
2022/04/11 03:54:20;;;;;;;0.00;0.00;;;;;;;;;;4999827;28;20036;-80
2022/04/11 03:56:46;;;;;;;0.07;0.07;;;;;;;;;;4998665;28;20041;-81
2022/04/11 03:59:12;;;;;;;0.10;0.10;;;;;;;;;;4998757;28;20037;-79
2022/04/11 04:01:38;;;;;;;0.00;0.00;;;;;;;;;;5000011;28;20022;-80
2022/04/11 04:04:04;;;;;;;0.10;0.10;;;;;;;;;;4998524;28;20022;-80
2022/04/11 04:06:30;;;;;;;0.10;0.10;;;;;;;;;;4999811;28;20049;-80
2022/04/11 04:08:56;;;;;;;0.03;0.03;;;;;;;;;;5001767;28;20288;-81
2022/04/11 04:11:22;;;;;;;0.10;0.10;;;;;;;;;;5001531;28;20041;-80
2022/04/11 04:13:48;;;;;;;0.00;0.00;;;;;;;;;;5002310;28;20088;-81
2022/04/11 04:16:14;;;;;;;0.10;0.10;;;;;;;;;;4999425;28;20067;-81
2022/04/11 04:18:40;;;;;;;0.13;0.13;;;;;;;;;;4998241;28;20042;-81
2022/04/11 04:21:06;;;;;;;0.03;0.03;;;;;;;;;;5030103;28;20120;-81
2022/04/11 04:23:32;;;;;;;0.00;0.00;;;;;;;;;;4999277;28;20049;-80
2022/04/11 04:25:59;;;;;;;0.03;0.03;;;;;;;;;;5000017;28;20077;-81
2022/04/11 04:28:25;;;;;;;0.00;0.00;;;;;;;;;;4997013;28;20034;-81
2022/04/11 04:30:51;;;;;;;0.05;0.05;;;;;;;;;;4997810;28;20503;-81
2022/04/11 04:33:17;;;;;;;0.07;0.07;;;;;;;;;;4997574;28;20033;-81
2022/04/11 04:35:43;;;;;;;0.10;0.10;;;;;;;;;;5028495;28;20091;-80
2022/04/11 04:38:09;;;;;;;1.23;1.13;;;;;;;;;;4999841;28;20038;-81
2022/04/11 04:40:35;;;;;;;0.10;0.10;;;;;;;;;;5001900;28;20396;-80
2022/04/11 04:43:01;;;;;;;0.10;0.10;;;;;;;;;;5000615;28;20041;-81
2022/04/11 04:45:27;;;;;;;0.20;0.20;;;;;;;;;;5002396;28;20038;-81
2022/04/11 04:47:53;;;;;;;0.10;0.10;;;;;;;;;;5000781;28;20052;-80
2022/04/11 04:50:19;;;;;;;0.38;0.38;;;;;;;;;;4999372;28;20032;-81
2022/04/11 04:52:45;;;;;;;0.17;0.17;;;;;;;;;;5000724;28;20033;-82
2022/04/11 04:55:12;;;;;;;0.10;0.10;;;;;;;;;;5000442;28;20029;-82
2022/04/11 04:57:38;;;;;;;0.00;0.00;;;;;;;;;;4999273;28;20250;-80
2022/04/11 05:00:04;;;;;;;0.00;0.00;;;;;;;;;;5031270;28;20046;-82
2022/04/11 05:02:37;;;;;;;0.00;0.00;;;;;;;;;;5015244;28;20132;-81
2022/04/11 05:05:04;;;;;;;0.10;0.10;;;;;;;;;;5007071;28;20514;-81
2022/04/11 05:07:29;;;;;;;;;;;;;;;;;;5003615;28;20103;-81
2022/04/11 05:09:55;;;;;;;0.10;0.10;;;;;;;;;;5007878;28;19920;-82
2022/04/11 05:12:21;;;;;;;2.28;1.13;;;;;;;;;;5004690;28;20588;-83
2022/04/11 05:14:48;;;;;;;0.10;0.10;;;;;;;;;;5006710;28;20025;-82
2022/04/11 05:17:13;;;;;;;0.60;0.52;;;;;;;;;;5006762;28;20100;-82
2022/04/11 05:19:39;;;;;;;0.00;0.00;;;;;;;;;;5019003;28;20038;-82
2022/04/11 05:22:06;;;;;;;0.00;0.00;;;;;;;;;;5005573;28;20470;-83
2022/04/11 05:24:32;;;;;;;0.05;0.05;;;;;;;;;;5017190;28;20668;-83
2022/04/11 05:26:58;;;;;;;0.43;0.40;;;;;;;;;;5010889;28;20418;-82
2022/04/11 05:29:24;;;;;;;0.60;0.60;;;;;;;;;;5012008;28;20097;-83
2022/04/11 05:31:51;;;;;;;0.03;0.03;;;;;;;;;;5001004;28;20491;-85
2022/04/11 05:34:17;;;;;;;0.00;0.00;;;;;;;;;;4996428;28;20131;-83
2022/04/11 05:36:43;;;;;;;0.10;0.10;;;;;;;;;;4998725;28;20034;-82
2022/04/11 05:39:09;;;;;;;0.10;0.10;;;;;;;;;;5026882;28;20025;-85
2022/04/11 05:41:35;;;;;;;0.50;0.50;;;;;;;;;;4995064;28;20129;-83
2022/04/11 05:44:01;;;;;;;0.10;0.10;;;;;;;;;;4997191;28;20100;-85
2022/04/11 05:46:27;;;;;;;0.10;0.10;;;;;;;;;;5005393;28;20073;-85
2022/04/11 05:48:53;;;;;;;0.10;0.10;;;;;;;;;;5003513;28;20153;-83
2022/04/11 05:51:19;;;;;;;0.28;0.28;;;;;;;;;;5032295;28;20453;-83
2022/04/11 05:53:45;;;;;;;0.13;0.13;;;;;;;;;;5001880;28;20030;-84
2022/04/11 05:56:11;;;;;;;0.10;0.10;;;;;;;;;;5002832;28;20042;-83
2022/04/11 05:58:37;;;;;;;0.00;0.00;;;;;;;;;;5004030;28;20025;-82
2022/04/11 06:01:03;;;;;;;0.00;0.00;;;;;;;;;;5002623;28;20033;-82
2022/04/11 06:03:29;;;;;;;0.10;0.10;;;;;;;;;;5001812;28;20030;-83
2022/04/11 06:05:55;;;;;;;0.10;0.10;;;;;;;;;;5000953;28;20042;-83
2022/04/11 06:08:21;;;;;;;0.00;0.00;;;;;;;;;;5001347;28;20057;-83
2022/04/11 06:10:47;;;;;;;0.10;0.10;;;;;;;;;;5036454;28;20542;-83
2022/04/11 06:13:13;;;;;;;0.00;0.00;;;;;;;;;;5001396;28;20030;-82
2022/04/11 06:15:39;;;;;;;0.20;0.20;;;;;;;;;;5001079;28;20030;-82
2022/04/11 06:18:05;;;;;;;0.00;0.00;;;;;;;;;;5001039;28;20026;-82
2022/04/11 06:20:31;;;;;;;1.60;0.30;;;;;;;;;;5034660;28;20533;-83
2022/04/11 06:22:58;;;;;;;0.63;0.63;;;;;;;;;;5003263;28;20121;-82
2022/04/11 06:25:24;;;;;;;0.10;0.10;;;;;;;;;;5001604;28;20038;-83
2022/04/11 06:27:50;;;;;;;0.00;0.00;;;;;;;;;;5001377;28;20030;-86
2022/04/11 06:30:16;;;;;;;0.43;0.30;;;;;;;;;;5000343;28;20526;-84
2022/04/11 06:32:42;;;;;;;0.20;0.20;;;;;;;;;;5001099;28;20060;-85
2022/04/11 06:35:08;;;;;;;0.15;0.15;;;;;;;;;;5002833;28;20030;-85
2022/04/11 06:37:34;;;;;;;0.38;0.22;;;;;;;;;;5003717;28;20081;-83
2022/04/11 06:40:02;;;;;;;0.10;0.10;;;;;;;;;;5002279;28;20030;-82
2022/04/11 06:42:28;;;;;;;0.10;0.10;;;;;;;;;;5033627;28;20080;-85
2022/04/11 06:44:54;;;;;;;0.30;0.30;;;;;;;;;;5005873;28;20069;-83
2022/04/11 06:47:24;;;;;;;0.10;0.10;;;;;;;;;;5017755;28;20453;-85
2022/04/11 06:49:50;;;;;;;0.10;0.10;;;;;;;;;;5005873;28;20763;-83
2022/04/11 06:52:17;;;;;;;0.00;0.00;;;;;;;;;;5002377;28;20140;-83
2022/04/11 06:54:44;;;;;;;0.10;0.10;;;;;;;;;;5001967;28;20093;-83
2022/04/11 06:57:11;;;;;;;0.10;0.10;;;;;;;;;;5002237;28;20284;-84
2022/04/11 06:59:37;;;;;;;0.00;0.00;;;;;;;;;;5002303;28;20123;-84
2022/04/11 07:02:03;;;;;;;0.00;0.00;;;;;;;;;;5004658;28;20122;-84
2022/04/11 07:04:29;;;;;;;0.10;0.10;;;;;;;;;;5034368;28;20092;-85
2022/04/11 07:06:55;;;;;;;2.43;0.67;;;;;;;;;;5001789;28;20511;-82
2022/04/11 07:09:21;;;;;;;0.20;0.20;;;;;;;;;;5001941;28;20580;-84
2022/04/11 07:11:47;;;;;;;0.00;0.00;;;;;;;;;;5001779;28;20569;-83
2022/04/11 07:14:13;;;;;;;0.00;0.00;;;;;;;;;;5002815;28;20682;-83
2022/04/11 07:16:39;;;;;;;0.00;0.00;;;;;;;;;;5004434;28;20297;-84
2022/04/11 07:19:06;;;;;;;0.00;0.00;;;;;;;;;;5001724;28;20040;-84
2022/04/11 07:21:32;;;;;;;0.10;0.10;;;;;;;;;;5001567;28;20292;-84
2022/04/11 07:23:58;;;;;;;0.00;0.00;;;;;;;;;;5001803;28;20038;-83
2022/04/11 07:26:24;;;;;;;0.20;0.20;;;;;;;;;;5001885;28;20048;-82
2022/04/11 07:28:51;;;;;;;0.22;0.22;;;;;;;;;;5005413;28;20114;-83
2022/04/11 07:31:17;;;;;;;0.00;0.00;;;;;;;;;;5002057;28;20041;-82
2022/04/11 07:33:43;;;;;;;0.00;0.00;;;;;;;;;;5001655;28;20025;-83
2022/04/11 07:36:09;;;;;;;0.77;0.20;;;;;;;;;;5001283;28;20050;-83
2022/04/11 07:38:35;;;;;;;0.00;0.00;;;;;;;;;;5001625;28;20080;-83
2022/04/11 07:41:01;;;;;;;0.20;0.20;;;;;;;;;;5003513;28;20499;-83
2022/04/11 07:43:27;;;;;;;0.10;0.00;;;;;;;;;;5002212;28;20026;-83
2022/04/11 07:45:53;;;;;;;0.08;0.08;;;;;;;;;;5008359;28;20061;-83
2022/04/11 07:48:19;;;;;;;0.08;0.08;;;;;;;;;;5023892;28;20030;-83
2022/04/11 07:50:45;;;;;;;0.00;0.00;;;;;;;;;;5003229;28;20057;-83
2022/04/11 07:53:11;;;;;;;0.00;0.00;;;;;;;;;;5002549;28;20069;-84
2022/04/11 07:55:37;;;;;;;2.35;0.45;;;;;;;;;;5002915;28;20065;-83
2022/04/11 07:58:04;;;;;;;0.08;0.00;;;;;;;;;;5000808;28;20061;-83
2022/04/11 08:00:30;;;;;;;0.00;0.00;;;;;;;;;;5000617;28;20048;-83
2022/04/11 08:02:57;;;;;;;0.52;0.30;;;;;;;;;;5000641;28;20379;-84
2022/04/11 08:05:23;;;;;;;;;;;;;;;;;;5000944;28;20510;-83
2022/04/11 08:07:49;;;;;;;0.00;0.00;;;;;;;;;;5006488;28;19909;-84
2022/04/11 08:10:16;;;;;;;;;;;;;;;;;;5000796;28;20041;-82
2022/04/11 08:12:50;;;;;;;1.30;0.10;;;;;;;;;;5000202;28;19921;-83
2022/04/11 08:15:16;;;;;;;0.00;0.00;;;;;;;;;;5000514;28;20033;-83
2022/04/11 08:17:42;;;;;;;0.10;0.10;;;;;;;;;;5000701;28;20565;-83
2022/04/11 08:20:08;;;;;;;0.15;0.13;;;;;;;;;;5002575;28;20032;-83
2022/04/11 08:22:34;;;;;;;0.00;0.00;;;;;;;;;;5002158;28;20034;-83
2022/04/11 08:25:00;;;;;;;0.00;0.00;;;;;;;;;;5000961;28;20038;-82
2022/04/11 08:27:26;;;;;;;0.57;0.50;;;;;;;;;;5000196;28;20053;-83
2022/04/11 08:29:52;;;;;;;0.00;0.00;;;;;;;;;;5000897;28;20403;-83
2022/04/11 08:32:18;;;;;;;0.00;0.00;;;;;;;;;;5001120;28;20041;-83
2022/04/11 08:34:44;;;;;;;0.00;0.00;;;;;;;;;;5003601;28;20030;-83
2022/04/11 08:37:10;;;;;;;0.00;0.00;;;;;;;;;;5000302;28;20191;-82
2022/04/11 08:39:37;;;;;;;0.32;0.32;;;;;;;;;;5000719;28;20883;-82
2022/04/11 08:42:04;;;;;;;0.10;0.10;;;;;;;;;;5000403;28;20037;-82
2022/04/11 08:44:31;;;;;;;0.20;0.08;;;;;;;;;;5000889;28;20054;-82
2022/04/11 08:47:00;;;;;;;0.20;0.20;;;;;;;;;;5018018;28;20068;-83
2022/04/11 08:49:28;;;;;;;0.00;0.00;;;;;;;;;;5002777;28;20029;-84
2022/04/11 08:51:54;;;;;;;0.00;0.00;;;;;;;;;;5000182;28;20025;-83
2022/04/11 08:54:20;;;;;;;;;;;;;;;;;;5000564;28;20030;-83
2022/04/11 08:56:47;;;;;;;0.00;0.00;;;;;;;;;;5000272;28;20272;-83
2022/04/11 08:59:14;;;;;;;0.00;0.00;;;;;;;;;;5001425;28;20149;-82
2022/04/11 09:01:40;;;;;;;0.30;0.20;;;;;;;;;;5002917;28;20034;-83
2022/04/11 09:04:08;;;;;;;0.00;0.00;;;;;;;;;;5000451;28;20785;-83
2022/04/11 09:06:35;;;;;;;0.38;0.20;;;;;;;;;;5000218;28;20045;-82
2022/04/11 09:09:02;;;;;;;0.22;0.22;;;;;;;;;;5000398;28;20045;-83
2022/04/11 09:11:31;;;;;;;0.85;0.40;;;;;;;;;;5031097;28;20032;-83
2022/04/11 09:14:00;;;;;;;0.00;0.00;;;;;;;;;;5002520;28;20026;-83
2022/04/11 09:16:26;;;;;;;0.28;0.28;;;;;;;;;;5002596;28;20518;-83
2022/04/11 09:18:54;;;;;;;0.15;0.15;;;;;;;;;;5033687;28;20034;-83
2022/04/11 09:21:22;;;;;;;0.00;0.00;;;;;;;;;;5005325;28;20049;-83
2022/04/11 09:23:49;;;;;;;1.55;0.47;;;;;;;;;;5004471;28;20061;-83
2022/04/11 09:26:19;;;;;;;9.57;0.55;;;;;;;;;;5004749;28;20643;-83
2022/04/11 09:28:58;;;;;;;0.13;0.03;;;;;;;;;;5007130;28;20033;-83
2022/04/11 09:31:24;;;;;;;0.00;0.00;;;;;;;;;;5036627;28;20116;-83
2022/04/11 09:33:50;;;;;;;0.00;0.00;;;;;;;;;;5003596;28;20034;-82
2022/04/11 09:36:16;;;;;;;0.00;0.00;;;;;;;;;;5003732;28;20038;-83
2022/04/11 09:38:42;;;;;;;2.20;1.00;;;;;;;;;;5003396;28;20058;-83
2022/04/11 09:41:08;;;;;;;0.00;0.00;;;;;;;;;;5005596;28;20383;-83
2022/04/11 09:43:35;;;;;;;0.00;0.00;;;;;;;;;;5004682;28;20036;-83
2022/04/11 09:46:02;;;;;;;0.10;0.10;;;;;;;;;;5010811;28;20050;-82
2022/04/11 09:48:37;;;;;;;0.30;0.30;;;;;;;;;;5010053;28;20628;-83
2022/04/11 09:51:09;;;;;;;0.00;0.00;;;;;;;;;;5034657;28;20077;-83
2022/04/11 09:53:35;;;;;;;0.15;0.15;;;;;;;;;;5002987;28;20554;-83
2022/04/11 09:56:01;;;;;;;;;;;;;;;;;;5006206;28;20026;-83
2022/04/11 09:58:28;;;;;;;0.93;0.80;;;;;;;;;;5004268;28;19921;-83
2022/04/11 10:00:54;;;;;;;0.10;0.10;;;;;;;;;;5002784;28;20125;-83
2022/04/11 10:03:22;;;;;;;0.00;0.00;;;;;;;;;;5003280;28;20033;-82
2022/04/11 10:05:49;;;;;;;0.00;0.00;;;;;;;;;;5034522;28;20042;-83
2022/04/11 10:08:15;;;;;;;0.55;0.40;;;;;;;;;;5003852;28;20458;-83
2022/04/11 10:10:42;;;;;;;1.95;0.65;;;;;;;;;;5036761;28;20625;-83
2022/04/11 10:13:10;;;;;;;0.00;0.00;;;;;;;;;;5003102;28;20111;-83
2022/04/11 10:15:37;;;;;;;0.00;0.00;;;;;;;;;;5003063;28;20029;-83
2022/04/11 10:18:04;;;;;;;0.20;0.20;;;;;;;;;;5003412;28;20033;-83
2022/04/11 10:20:31;;;;;;;0.00;0.00;;;;;;;;;;5004979;28;20502;-82
2022/04/11 10:23:03;;;;;;;0.20;0.15;;;;;;;;;;5012415;28;20814;-82
2022/04/11 10:25:32;;;;;;;0.10;0.10;;;;;;;;;;5020239;28;20475;-83
2022/04/11 10:28:16;;;;;;;0.00;0.00;;;;;;;;;;5002253;28;20033;-84
2022/04/11 10:30:42;;;;;;;0.05;0.05;;;;;;;;;;5001759;28;20499;-83
2022/04/11 10:33:08;;;;;;;0.00;0.00;;;;;;;;;;5001950;28;20077;-84
2022/04/11 10:35:39;;;;;;;0.22;0.22;;;;;;;;;;5005064;28;20033;-82
2022/04/11 10:38:06;;;;;;;0.25;0.25;;;;;;;;;;5016040;28;20230;-85
2022/04/11 10:40:32;;;;;;;0.32;0.32;;;;;;;;;;5003466;28;20706;-83
2022/04/11 10:43:01;;;;;;;0.47;0.47;;;;;;;;;;5009448;28;20503;-82
2022/04/11 10:45:35;;;;;;;0.17;0.17;;;;;;;;;;5006425;28;20041;-82
2022/04/11 10:48:01;;;;;;;0.00;0.00;;;;;;;;;;5016962;28;20037;-81
2022/04/11 10:50:34;;;;;;;1.77;0.73;;;;;;;;;;5005739;28;20119;-83
2022/04/11 10:53:10;;;;;;;0.13;0.13;;;;;;;;;;5004746;28;20054;-83
2022/04/11 10:55:36;;;;;;;;;;;;;;;;;;5006317;28;20113;-82
2022/04/11 10:58:02;;;;;;;0.05;0.05;;;;;;;;;;5001825;28;20009;-82
2022/04/11 11:00:32;;;;;;;0.00;0.00;;;;;;;;;;5001826;28;20095;-83
2022/04/11 11:03:01;;;;;;;0.00;0.00;;;;;;;;;;5001905;28;20053;-83
2022/04/11 11:05:41;;;;;;;0.00;0.00;;;;;;;;;;5002421;28;20491;-83
2022/04/11 11:08:10;;;;;;;0.00;0.00;;;;;;;;;;5003992;28;20092;-82
2022/04/11 11:10:42;;;;;;;0.77;0.70;;;;;;;;;;5005461;28;20034;-83
2022/04/11 11:13:32;;;;;;;0.30;0.30;;;;;;;;;;5001982;28;20083;-83
2022/04/11 11:15:58;;;;;;;0.10;0.10;;;;;;;;;;5002887;28;20046;-83
2022/04/11 11:18:24;;;;;;;0.10;0.10;;;;;;;;;;5007779;28;20033;-83
2022/04/11 11:20:52;;;;;;;0.00;0.00;;;;;;;;;;5001301;28;20038;-82
2022/04/11 11:23:31;;;;;;;0.00;0.00;;;;;;;;;;5003366;28;20070;-82
2022/04/11 11:26:07;;;;;;;0.00;0.00;;;;;;;;;;5004176;28;20121;-83
2022/04/11 11:28:33;;;;;;;0.10;0.10;;;;;;;;;;5007046;28;20046;-83
2022/04/11 11:30:59;;;;;;;0.08;0.08;;;;;;;;;;5006210;28;20651;-82
2022/04/11 11:33:26;;;;;;;0.28;0.28;;;;;;;;;;5008522;28;20041;-82
2022/04/11 11:35:53;;;;;;;0.10;0.10;;;;;;;;;;5001416;28;20026;-82
2022/04/11 11:38:29;;;;;;;0.13;0.13;;;;;;;;;;5018075;28;20141;-82
2022/04/11 11:41:05;;;;;;;0.65;0.15;;;;;;;;;;5008350;28;20036;-83
2022/04/11 11:43:31;;;;;;;0.03;0.03;;;;;;;;;;5005509;28;20880;-82
2022/04/11 11:45:58;;;;;;;0.03;0.03;;;;;;;;;;5033395;28;20129;-82
2022/04/11 11:48:26;;;;;;;1.00;0.32;;;;;;;;;;5001276;28;20840;-82
2022/04/11 11:50:55;;;;;;;0.05;0.05;;;;;;;;;;5001163;28;20037;-82
2022/04/11 11:53:21;;;;;;;0.00;0.00;;;;;;;;;;5002403;28;20038;-82
2022/04/11 11:56:08;;;;;;;0.20;0.20;;;;;;;;;;5004395;28;20510;-83
2022/04/11 11:58:41;;;;;;;0.10;0.10;;;;;;;;;;5002434;28;20061;-82
2022/04/11 12:01:10;;;;;;;0.10;0.10;;;;;;;;;;5000866;28;20034;-83
2022/04/11 12:06:28;;;;;;;0.47;0.47;;;;;;;;;;5000967;28;20053;-82
2022/04/11 12:08:58;;;;;;;0.00;0.00;;;;;;;;;;5001320;28;20026;-83
2022/04/11 12:11:27;;;;;;;0.43;0.30;;;;;;;;;;4985706;28;20130;-83
2022/04/11 12:14:00;;;;;;;0.10;0.10;;;;;;;;;;5000208;28;20487;-82
2022/04/11 12:16:29;;;;;;;0.22;0.08;;;;;;;;;;5003258;28;20037;-83
2022/04/11 12:18:56;;;;;;;0.00;0.00;;;;;;;;;;5000125;28;20080;-83
2022/04/11 12:21:34;;;;;;;0.10;0.10;;;;;;;;;;5000531;28;20037;-82
2022/04/11 12:24:00;;;;;;;0.22;0.22;;;;;;;;;;5000593;28;20538;-82
2022/04/11 12:26:36;;;;;;;0.00;0.00;;;;;;;;;;5000672;28;20033;-83
2022/04/11 12:29:17;;;;;;;0.10;0.10;;;;;;;;;;5003199;28;20044;-82
2022/04/11 12:31:56;;;;;;;0.00;0.00;;;;;;;;;;5003185;28;20499;-83
2022/04/11 12:34:31;;;;;;;0.32;0.30;;;;;;;;;;5000867;28;20487;-83
2022/04/11 12:37:02;;;;;;;0.00;0.00;;;;;;;;;;5000661;28;20026;-83
2022/04/11 12:39:29;;;;;;;0.00;0.00;;;;;;;;;;5000732;28;20041;-83
2022/04/11 12:41:55;;;;;;;0.30;0.25;;;;;;;;;;5000368;28;20018;-83
2022/04/11 12:44:36;;;;;;;0.10;0.10;;;;;;;;;;5000462;28;20180;-82
2022/04/11 12:47:03;;;;;;;0.47;0.47;;;;;;;;;;5017808;28;20045;-82
2022/04/11 12:49:48;;;;;;;0.00;0.00;;;;;;;;;;5002129;28;20121;-82
2022/04/11 12:52:16;;;;;;;0.20;0.20;;;;;;;;;;5000381;28;20769;-83
2022/04/11 12:54:43;;;;;;;0.00;0.00;;;;;;;;;;5000045;28;20034;-82
2022/04/11 12:57:11;;;;;;;0.00;0.00;;;;;;;;;;5000598;28;20030;-82
2022/04/11 12:59:38;;;;;;;0.57;0.57;;;;;;;;;;5000385;28;20022;-82
2022/04/11 13:02:08;;;;;;;0.03;0.03;;;;;;;;;;5001921;28;20056;-82
2022/04/11 13:04:35;;;;;;;0.30;0.30;;;;;;;;;;5001770;28;20032;-83
2022/04/11 13:07:02;;;;;;;0.00;0.00;;;;;;;;;;4999868;28;20163;-82
2022/04/11 13:09:28;;;;;;;;;;;;;;;;;;5000001;28;20073;-83
2022/04/11 13:11:55;;;;;;;1.45;0.70;;;;;;;;;;5031891;28;20277;-83
2022/04/11 13:14:21;;;;;;;0.00;0.00;;;;;;;;;;5000300;28;20041;-82
2022/04/11 13:19:32;;;;;;;0.55;0.55;;;;;;;;;;5003323;28;20069;-83
2022/04/11 13:21:59;;;;;;;0.08;0.08;;;;;;;;;;5000855;28;20514;-83
2022/04/11 13:24:25;;;;;;;0.00;0.00;;;;;;;;;;4999894;28;20041;-83
2022/04/11 13:26:51;;;;;;;0.10;0.10;;;;;;;;;;5000029;28;20030;-82
2022/04/11 13:29:17;;;;;;;0.47;0.32;;;;;;;;;;5000807;28;20036;-83
2022/04/11 13:31:43;;;;;;;1.30;1.17;;;;;;;;;;5002371;28;20037;-83
2022/04/11 13:34:09;;;;;;;0.80;0.38;;;;;;;;;;4999475;28;20562;-82
2022/04/11 13:36:35;;;;;;;0.10;0.10;;;;;;;;;;4999736;28;20029;-83
2022/04/11 13:39:01;;;;;;;0.73;0.45;;;;;;;;;;5000087;28;20041;-83
2022/04/11 13:41:28;;;;;;;0.03;0.03;;;;;;;;;;5000056;28;20029;-83
2022/04/11 13:43:54;;;;;;;8.45;1.45;;;;;;;;;;5003700;28;20096;-82
2022/04/11 13:46:20;;;;;;;0.13;0.13;;;;;;;;;;5010205;28;20108;-82
2022/04/11 13:48:46;;;;;;;0.00;0.00;;;;;;;;;;5004578;28;20320;-83
2022/04/11 13:51:12;;;;;;;4.07;1.30;;;;;;;;;;5000279;28;20064;-83
2022/04/11 13:53:38;;;;;;;0.10;0.10;;;;;;;;;;4999510;28;20337;-82
2022/04/11 13:56:06;;;;;;;0.17;0.17;;;;;;;;;;5001645;28;20026;-82
2022/04/11 13:58:32;;;;;;;0.00;0.00;;;;;;;;;;5000795;28;20482;-83
2022/04/11 14:00:58;;;;;;;0.00;0.00;;;;;;;;;;4998814;28;20280;-82
2022/04/11 14:03:24;;;;;;;0.75;0.25;;;;;;;;;;5031134;28;20077;-83
2022/04/11 14:05:50;;;;;;;0.33;0.33;;;;;;;;;;5001007;28;20407;-83
2022/04/11 14:08:16;;;;;;;0.00;0.00;;;;;;;;;;5003783;28;20284;-83
2022/04/11 14:10:44;;;;;;;0.13;0.13;;;;;;;;;;5005651;28;20030;-83
2022/04/11 14:13:10;;;;;;;0.10;0.10;;;;;;;;;;5003197;28;20049;-82
2022/04/11 14:15:36;;;;;;;0.65;0.43;;;;;;;;;;5002268;28;20115;-83
2022/04/11 14:18:02;;;;;;;0.13;0.13;;;;;;;;;;5003007;28;20506;-82
2022/04/11 14:20:28;;;;;;;0.00;0.00;;;;;;;;;;5002677;28;20368;-83
2022/04/11 14:22:55;;;;;;;0.27;0.20;;;;;;;;;;5006422;28;21107;-83
2022/04/11 14:25:21;;;;;;;0.55;0.43;;;;;;;;;;5004924;28;20044;-82
2022/04/11 14:27:47;;;;;;;0.30;0.28;;;;;;;;;;5034193;28;20827;-82
2022/04/11 14:30:13;;;;;;;0.20;0.20;;;;;;;;;;5002716;28;20542;-82
2022/04/11 14:32:39;;;;;;;0.20;0.20;;;;;;;;;;5003454;28;20278;-83
2022/04/11 14:35:06;;;;;;;0.13;0.13;;;;;;;;;;5005022;28;20038;-82
2022/04/11 14:37:32;;;;;;;0.22;0.22;;;;;;;;;;5003645;28;20034;-83
2022/04/11 14:39:58;;;;;;;0.10;0.10;;;;;;;;;;5002176;28;20044;-82
2022/04/11 14:42:24;;;;;;;0.00;0.00;;;;;;;;;;5002560;28;20382;-82
2022/04/11 14:44:50;;;;;;;0.20;0.20;;;;;;;;;;5002020;28;20081;-82
2022/04/11 14:47:16;;;;;;;0.10;0.10;;;;;;;;;;5019007;28;20304;-84
2022/04/11 14:49:42;;;;;;;0.17;0.17;;;;;;;;;;5004399;28;20301;-82